createdAt,value
2023-02-06T00:01:55.003Z,4.80
2023-02-06T00:05:45.448Z,4.68
2023-02-06T00:08:22.001Z,4.63
2023-02-06T00:10:55.803Z,4.62
2023-02-06T00:13:30.753Z,4.71
2023-02-06T00:16:07.144Z,4.83
2023-02-06T00:22:25.270Z,4.65
2023-02-06T00:25:07.891Z,4.67
2023-02-06T00:31:30.265Z,4.57
2023-02-06T00:38:16.240Z,4.65
2023-02-06T00:41:06.932Z,4.62
2023-02-06T00:43:38.413Z,4.73
2023-02-06T00:46:17.790Z,4.64
2023-02-06T00:48:57.244Z,4.69
2023-02-06T00:51:43.908Z,4.64
2023-02-06T00:54:24.649Z,4.58
2023-02-06T00:57:06.535Z,4.53
2023-02-06T00:59:54.706Z,4.70
2023-02-06T01:02:25.112Z,4.61
2023-02-06T01:08:56.421Z,4.54
2023-02-06T01:11:57.673Z,4.51
2023-02-06T01:14:42.533Z,4.61
2023-02-06T01:17:27.831Z,4.46
2023-02-06T01:20:03.873Z,4.57
2023-02-06T01:22:45.580Z,4.54
2023-02-06T01:26:20.068Z,4.48
2023-02-06T01:29:05.888Z,4.45
2023-02-06T01:31:39.047Z,4.33
2023-02-06T01:34:22.404Z,4.31
2023-02-06T01:38:38.005Z,4.30
2023-02-06T01:43:44.307Z,4.46
2023-02-06T01:46:26.417Z,4.38
2023-02-06T01:48:59.908Z,4.46
2023-02-06T01:51:40.477Z,4.40
2023-02-06T01:54:21.944Z,4.40
2023-02-06T01:58:01.148Z,4.48
2023-02-06T02:00:33.319Z,4.26
2023-02-06T02:03:20.052Z,4.53
2023-02-06T02:09:55.584Z,4.46
2023-02-06T02:12:45.384Z,4.38
2023-02-06T02:16:04.392Z,4.45
2023-02-06T02:19:09.762Z,4.50
2023-02-06T02:22:05.145Z,4.46
2023-02-06T02:25:09.169Z,3.84
2023-02-06T02:28:29.078Z,3.85
2023-02-06T02:31:36.626Z,4.10
2023-02-06T02:34:44.543Z,3.92
2023-02-06T02:38:01.049Z,4.07
2023-02-06T02:40:54.195Z,4.09
2023-02-06T02:43:53.591Z,4.08
2023-02-06T02:46:46.946Z,4.11
2023-02-06T02:49:33.409Z,4.17
2023-02-06T02:52:21.360Z,4.18
2023-02-06T02:55:09.669Z,4.15
2023-02-06T02:57:51.984Z,4.15
2023-02-06T03:01:05.986Z,4.19
2023-02-06T03:03:52.499Z,4.19
2023-02-06T03:07:15.750Z,4.27
2023-02-06T03:10:34.649Z,4.13
2023-02-06T03:13:46.369Z,3.66
2023-02-06T03:16:33.604Z,3.36
2023-02-06T03:19:33.935Z,3.53
2023-02-06T03:22:10.470Z,3.55
2023-02-06T03:24:47.456Z,3.21
2023-02-06T03:27:25.046Z,3.18
2023-02-06T03:29:57.111Z,3.26
2023-02-06T03:40:23.272Z,3.18
2023-02-06T03:43:09.262Z,3.02
2023-02-06T03:45:47.653Z,2.99
2023-02-06T03:48:51.640Z,3.19
2023-02-06T03:51:29.419Z,3.08
2023-02-06T03:58:26.619Z,3.24
2023-02-06T04:01:03.634Z,3.20
2023-02-06T04:03:34.823Z,2.95
2023-02-06T04:06:08.256Z,2.94
2023-02-06T04:09:29.963Z,3.26
2023-02-06T04:12:01.924Z,3.27
2023-02-06T04:15:50.383Z,3.36
2023-02-06T04:18:43.987Z,3.47
2023-02-06T04:21:17.047Z,3.31
2023-02-06T04:23:52.902Z,3.35
2023-02-06T04:26:34.084Z,3.49
2023-02-06T04:29:48.349Z,3.58
2023-02-06T04:32:21.755Z,3.42
2023-02-06T04:34:58.026Z,3.56
2023-02-06T04:37:32.903Z,3.36
2023-02-06T04:41:25.411Z,3.29
2023-02-06T04:44:01.031Z,2.88
2023-02-06T04:46:33.382Z,3.14
2023-02-06T04:49:13.628Z,3.18
2023-02-06T04:51:58.142Z,3.18
2023-02-06T04:54:30.162Z,3.30
2023-02-06T04:57:08.304Z,3.37
2023-02-06T04:59:47.630Z,3.18
2023-02-06T05:05:14.426Z,3.30
2023-02-06T05:11:31.090Z,3.40
2023-02-06T05:14:10.377Z,3.10
2023-02-06T05:16:53.411Z,3.27
2023-02-06T05:19:30.190Z,3.28
2023-02-06T05:22:05.767Z,3.20
2023-02-06T05:24:51.041Z,3.16
2023-02-06T05:27:28.580Z,3.19
2023-02-06T05:30:06.648Z,3.36
2023-02-06T05:32:52.028Z,3.29
2023-02-06T05:35:50.114Z,3.46
2023-02-06T05:38:20.040Z,3.22
2023-02-06T05:40:54.157Z,3.30
2023-02-06T05:47:12.495Z,3.33
2023-02-06T05:49:40.500Z,3.42
2023-02-06T05:53:06.818Z,3.45
2023-02-06T06:00:12.856Z,3.34
2023-02-06T06:07:16.368Z,3.23
2023-02-06T06:09:49.525Z,3.28
2023-02-06T06:12:19.293Z,3.30
2023-02-06T06:14:47.311Z,3.38
2023-02-06T06:21:26.612Z,3.23
2023-02-06T06:23:56.578Z,3.20
2023-02-06T06:26:31.456Z,3.27
2023-02-06T06:29:23.784Z,3.34
2023-02-06T06:32:27.135Z,3.39
2023-02-06T06:35:02.956Z,3.44
2023-02-06T06:37:43.542Z,3.23
2023-02-06T06:40:13.615Z,3.31
2023-02-06T06:42:41.991Z,3.10
2023-02-06T06:45:10.469Z,3.08
2023-02-06T06:47:38.539Z,3.07
2023-02-06T06:50:07.155Z,3.22
2023-02-06T06:52:36.264Z,3.30
2023-02-06T06:55:05.144Z,3.30
2023-02-06T06:57:35.656Z,3.14
2023-02-06T07:00:08.380Z,3.16
2023-02-06T07:02:37.330Z,3.31
2023-02-06T07:05:08.692Z,3.28
2023-02-06T07:07:37.985Z,3.14
2023-02-06T07:10:08.195Z,3.32
2023-02-06T07:12:46.313Z,3.23
2023-02-06T07:15:14.356Z,3.33
2023-02-06T07:17:46.082Z,3.52
2023-02-06T07:20:13.740Z,3.46
2023-02-06T07:22:43.700Z,3.54
2023-02-06T07:25:11.718Z,3.72
2023-02-06T07:27:39.409Z,3.66
2023-02-06T07:30:07.790Z,3.35
2023-02-06T07:32:48.834Z,3.11
2023-02-06T07:35:26.034Z,3.22
2023-02-06T07:38:04.732Z,3.30
2023-02-06T07:40:47.032Z,3.39
2023-02-06T07:43:39.676Z,3.48
2023-02-06T07:46:10.839Z,3.39
2023-02-06T07:48:54.901Z,3.19
2023-02-06T07:51:25.499Z,3.53
2023-02-06T07:54:02.770Z,3.38
2023-02-06T07:56:30.675Z,3.44
2023-02-06T07:59:03.489Z,3.43
2023-02-06T08:01:45.541Z,3.70
2023-02-06T08:04:43.562Z,3.91
2023-02-06T08:07:17.382Z,3.73
2023-02-06T08:09:45.105Z,3.89
2023-02-06T08:12:12.763Z,3.98
2023-02-06T08:14:40.511Z,3.54
2023-02-06T08:17:08.355Z,3.68
2023-02-06T08:19:35.837Z,3.77
2023-02-06T08:22:03.472Z,3.70
2023-02-06T08:24:31.617Z,3.64
2023-02-06T08:27:01.671Z,3.79
2023-02-06T08:29:29.438Z,4.08
2023-02-06T08:31:57.105Z,3.92
2023-02-06T08:34:24.655Z,3.91
2023-02-06T08:36:52.214Z,3.84
2023-02-06T08:39:19.767Z,3.89
2023-02-06T08:41:47.628Z,4.21
2023-02-06T08:44:17.207Z,4.51
2023-02-06T08:46:46.808Z,3.99
2023-02-06T08:49:19.673Z,4.13
2023-02-06T08:51:49.273Z,4.14
2023-02-06T08:54:19.285Z,4.37
2023-02-06T08:56:47.488Z,4.35
2023-02-06T08:59:16.593Z,4.54
2023-02-06T09:01:45.725Z,4.24
2023-02-06T09:04:14.242Z,4.52
2023-02-06T09:06:46.422Z,4.77
2023-02-06T09:09:13.889Z,4.88
2023-02-06T09:11:43.219Z,4.76
2023-02-06T09:14:15.174Z,4.64
2023-02-06T09:16:43.438Z,4.68
2023-02-06T09:19:12.982Z,4.59
2023-02-06T09:21:40.472Z,4.59
2023-02-06T09:24:09.473Z,4.20
2023-02-06T09:26:53.349Z,4.44
2023-02-06T09:29:25.782Z,4.37
2023-02-06T09:31:53.190Z,4.54
2023-02-06T09:34:20.500Z,4.58
2023-02-06T09:36:47.937Z,4.70
2023-02-06T09:39:15.331Z,4.64
2023-02-06T09:41:46.601Z,4.33
2023-02-06T09:44:18.725Z,4.35
2023-02-06T09:46:54.781Z,4.41
2023-02-06T09:49:35.902Z,4.50
2023-02-06T09:52:20.867Z,4.29
2023-02-06T09:55:07.583Z,4.21
2023-02-06T09:57:46.370Z,4.36
2023-02-06T10:00:42.620Z,4.75
2023-02-06T10:03:28.050Z,4.62
2023-02-06T10:06:22.132Z,4.33
2023-02-06T10:08:49.569Z,4.40
2023-02-06T10:11:33.709Z,4.21
2023-02-06T10:14:06.781Z,4.44
2023-02-06T10:16:45.142Z,4.50
2023-02-06T10:19:43.920Z,4.24
2023-02-06T10:22:21.089Z,4.15
2023-02-06T10:25:14.138Z,4.12
2023-02-06T10:27:44.289Z,4.26
2023-02-06T10:30:18.135Z,4.57
2023-02-06T10:32:50.996Z,4.39
2023-02-06T10:35:27.057Z,4.36
2023-02-06T10:38:09.674Z,4.35
2023-02-06T10:40:58.168Z,4.13
2023-02-06T10:43:40.628Z,4.11
2023-02-06T10:46:34.825Z,4.23
2023-02-06T10:49:11.025Z,4.46
2023-02-06T10:51:44.462Z,4.35
2023-02-06T10:54:15.948Z,4.16
2023-02-06T10:56:46.878Z,4.47
2023-02-06T10:59:35.307Z,4.29
2023-02-06T11:02:13.700Z,4.35
2023-02-06T11:04:47.581Z,4.25
2023-02-06T11:07:25.203Z,4.40
2023-02-06T11:09:53.485Z,4.52
2023-02-06T11:12:29.891Z,4.08
2023-02-06T11:15:02.262Z,4.30
2023-02-06T11:17:30.691Z,4.54
2023-02-06T11:20:20.262Z,4.39
2023-02-06T11:22:52.977Z,4.44
2023-02-06T11:25:36.526Z,4.62
2023-02-06T11:28:15.586Z,4.87
2023-02-06T11:30:55.272Z,4.86
2023-02-06T11:33:47.339Z,4.55
2023-02-06T11:36:31.658Z,4.52
2023-02-06T11:39:33.109Z,4.60
2023-02-06T11:42:00.555Z,4.76
2023-02-06T11:44:35.162Z,4.94
2023-02-06T11:47:35.047Z,4.79
2023-02-06T11:50:12.445Z,4.52
2023-02-06T11:52:46.931Z,4.66
2023-02-06T11:55:44.842Z,4.72
2023-02-06T11:58:24.029Z,4.48
2023-02-06T12:00:54.753Z,4.89
2023-02-06T12:03:41.045Z,5.05
2023-02-06T12:06:15.249Z,4.38
2023-02-06T12:08:55.024Z,4.82
2023-02-06T12:11:24.798Z,4.67
2023-02-06T12:13:59.001Z,4.78
2023-02-06T12:16:27.977Z,5.08
2023-02-06T12:18:57.970Z,4.96
2023-02-06T12:21:48.891Z,4.99
2023-02-06T12:24:37.734Z,5.11
2023-02-06T12:27:20.699Z,4.97
2023-02-06T12:30:29.400Z,4.50
2023-02-06T12:33:48.003Z,5.13
2023-02-06T12:36:20.685Z,5.53
2023-02-06T12:38:50.790Z,4.44
2023-02-06T12:41:46.049Z,4.43
2023-02-06T12:44:35.087Z,5.05
2023-02-06T12:47:23.957Z,5.60
2023-02-06T12:49:57.058Z,4.81
2023-02-06T12:52:38.878Z,4.59
2023-02-06T12:55:18.251Z,4.76
2023-02-06T12:57:46.118Z,5.46
2023-02-06T13:00:32.835Z,5.69
2023-02-06T13:03:05.989Z,5.50
2023-02-06T13:05:39.472Z,4.84
2023-02-06T13:08:12.716Z,5.48
2023-02-06T13:10:41.539Z,5.99
2023-02-06T13:13:27.127Z,6.05
2023-02-06T13:15:56.740Z,5.99
2023-02-06T13:18:42.360Z,5.28
2023-02-06T13:21:21.985Z,5.24
2023-02-06T13:24:13.573Z,5.71
2023-02-06T13:26:48.839Z,6.13
2023-02-06T13:29:30.175Z,6.11
2023-02-06T13:32:12.597Z,5.76
2023-02-06T13:34:46.591Z,6.09
2023-02-06T13:37:26.075Z,6.28
2023-02-06T13:40:12.859Z,5.90
2023-02-06T13:43:03.267Z,5.17
2023-02-06T13:45:41.665Z,5.29
2023-02-06T13:48:40.329Z,5.55
2023-02-06T13:51:32.180Z,6.17
2023-02-06T13:54:21.090Z,6.33
2023-02-06T13:57:19.221Z,6.11
2023-02-06T14:00:02.263Z,5.81
2023-02-06T14:02:42.137Z,5.70
2023-02-06T14:05:14.398Z,5.60
2023-02-06T14:08:20.233Z,4.91
2023-02-06T14:11:05.734Z,5.70
2023-02-06T14:13:39.913Z,5.40
2023-02-06T14:16:41.173Z,5.69
2023-02-06T14:19:46.697Z,5.49
2023-02-06T14:22:29.093Z,5.58
2023-02-06T14:25:18.296Z,5.50
2023-02-06T14:28:02.422Z,5.33
2023-02-06T14:30:50.503Z,5.44
2023-02-06T14:33:40.629Z,5.35
2023-02-06T14:36:18.115Z,5.60
2023-02-06T14:38:59.512Z,5.45
2023-02-06T14:41:31.768Z,5.71
2023-02-06T14:44:02.287Z,5.40
2023-02-06T14:46:29.932Z,5.45
2023-02-06T14:48:59.589Z,5.66
2023-02-06T14:51:36.970Z,5.58
2023-02-06T14:54:06.967Z,5.57
2023-02-06T14:56:37.183Z,5.27
2023-02-06T14:59:13.860Z,4.91
2023-02-06T15:01:43.893Z,5.09
2023-02-06T15:04:14.513Z,5.28
2023-02-06T15:06:58.760Z,5.27
2023-02-06T15:09:33.721Z,5.13
2023-02-06T15:12:04.488Z,5.08
2023-02-06T15:14:34.368Z,4.89
2023-02-06T15:17:02.966Z,4.81
2023-02-06T15:19:33.006Z,4.72
2023-02-06T15:22:07.030Z,4.76
2023-02-06T15:24:37.278Z,4.69
2023-02-06T15:27:07.415Z,4.69
2023-02-06T15:29:34.818Z,4.56
2023-02-06T15:32:07.879Z,4.55
2023-02-06T15:34:35.531Z,4.22
2023-02-06T15:37:20.243Z,4.35
2023-02-06T15:39:48.307Z,4.43
2023-02-06T15:42:16.585Z,4.60
2023-02-06T15:44:44.448Z,4.32
2023-02-06T15:47:16.654Z,4.42
2023-02-06T15:49:47.597Z,4.40
2023-02-06T15:52:32.584Z,4.36
2023-02-06T15:55:00.882Z,4.43
2023-02-06T15:57:35.436Z,4.51
2023-02-06T16:00:09.692Z,4.51
2023-02-06T16:02:43.594Z,4.27
2023-02-06T16:05:25.218Z,4.22
2023-02-06T16:07:52.787Z,3.94
2023-02-06T16:10:24.223Z,4.05
2023-02-06T16:12:52.236Z,4.13
2023-02-06T16:15:35.807Z,4.10
2023-02-06T16:18:23.483Z,4.13
2023-02-06T16:20:51.067Z,3.90
2023-02-06T16:23:28.314Z,4.00
2023-02-06T16:26:03.653Z,3.90
2023-02-06T16:28:31.044Z,3.89
2023-02-06T16:31:02.200Z,3.89
2023-02-06T16:33:41.332Z,4.00
2023-02-06T16:36:13.143Z,3.89
2023-02-06T16:38:43.123Z,3.81
2023-02-06T16:41:29.563Z,3.77
2023-02-06T16:44:45.320Z,3.78
2023-02-06T16:47:19.176Z,3.74
2023-02-06T16:49:52.213Z,3.66
2023-02-06T16:52:24.416Z,3.72
2023-02-06T16:54:53.399Z,3.60
2023-02-06T16:57:29.738Z,3.53
2023-02-06T16:59:58.297Z,3.62
2023-02-06T17:02:27.441Z,3.56
2023-02-06T17:04:55.431Z,3.53
2023-02-06T17:07:25.115Z,3.49
2023-02-06T17:09:55.586Z,3.44
2023-02-06T17:12:23.249Z,3.46
2023-02-06T17:14:51.051Z,3.53
2023-02-06T17:17:20.706Z,3.45
2023-02-06T17:19:50.125Z,3.33
2023-02-06T17:22:18.503Z,3.29
2023-02-06T17:24:51.062Z,3.22
2023-02-06T17:27:21.415Z,3.24
2023-02-06T17:29:50.023Z,3.18
2023-02-06T17:32:22.190Z,3.08
2023-02-06T17:34:54.489Z,3.11
2023-02-06T17:37:22.107Z,3.09
2023-02-06T17:39:50.986Z,3.07
2023-02-06T17:42:19.325Z,2.96
2023-02-06T17:44:47.260Z,2.97
2023-02-06T17:47:14.719Z,2.84
2023-02-06T17:49:42.395Z,2.82
2023-02-06T17:52:11.102Z,2.81
2023-02-06T17:54:39.664Z,2.63
2023-02-06T17:57:07.302Z,2.46
2023-02-06T17:59:39.377Z,2.41
2023-02-06T18:02:14.847Z,2.30
2023-02-06T18:04:51.007Z,2.07
2023-02-06T18:07:31.765Z,2.12
2023-02-06T18:10:12.875Z,2.29
2023-02-06T18:12:52.850Z,2.11
2023-02-06T18:15:35.656Z,2.08
2023-02-06T18:18:06.933Z,1.97
2023-02-06T18:20:37.139Z,1.92
2023-02-06T18:23:07.407Z,1.68
2023-02-06T18:25:38.859Z,1.62
2023-02-06T18:28:10.699Z,1.53
2023-02-06T18:30:44.852Z,1.45
2023-02-06T18:33:14.534Z,1.22
2023-02-06T18:35:46.686Z,1.36
2023-02-06T18:38:14.592Z,1.53
2023-02-06T18:40:46.850Z,1.48
2023-02-06T18:43:14.863Z,1.48
2023-02-06T18:45:42.863Z,1.52
2023-02-06T18:48:13.035Z,1.39
2023-02-06T18:50:42.187Z,1.31
2023-02-06T18:53:09.712Z,1.24
2023-02-06T18:55:37.357Z,1.29
2023-02-06T18:58:05.632Z,1.38
2023-02-06T19:00:37.841Z,1.37
2023-02-06T19:03:18.219Z,1.24
2023-02-06T19:05:46.080Z,1.42
2023-02-06T19:08:16.034Z,1.32
2023-02-06T19:10:43.472Z,1.27
2023-02-06T19:13:10.993Z,1.29
2023-02-06T19:15:38.429Z,1.26
2023-02-06T19:18:06.152Z,1.19
2023-02-06T19:20:33.564Z,1.32
2023-02-06T19:23:00.974Z,1.30
2023-02-06T19:25:28.464Z,1.38
2023-02-06T19:27:56.911Z,1.46
2023-02-06T19:30:24.578Z,1.56
2023-02-06T19:32:52.485Z,1.43
2023-02-06T19:35:20.384Z,1.64
2023-02-06T19:37:47.827Z,1.71
2023-02-06T19:40:15.408Z,1.54
2023-02-06T19:42:45.367Z,1.56
2023-02-06T19:45:12.879Z,1.58
2023-02-06T19:47:40.481Z,1.61
2023-02-06T19:50:10.212Z,1.68
2023-02-06T19:52:38.907Z,1.60
2023-02-06T19:55:12.526Z,1.68
2023-02-06T19:57:40.769Z,1.76
2023-02-06T20:00:09.427Z,1.71
2023-02-06T20:02:39.749Z,1.84
2023-02-06T20:08:13.991Z,1.92
2023-02-06T20:10:44.285Z,1.82
2023-02-06T20:13:14.579Z,1.93
2023-02-06T20:15:42.263Z,2.01
2023-02-06T20:18:21.474Z,1.99
2023-02-06T20:20:49.847Z,2.01
2023-02-06T20:23:17.688Z,1.80
2023-02-06T20:25:45.573Z,1.77
2023-02-06T20:28:16.095Z,1.72
2023-02-06T20:30:46.239Z,1.87
2023-02-06T20:33:14.000Z,1.81
2023-02-06T20:35:45.833Z,1.78
2023-02-06T20:38:13.611Z,1.83
2023-02-06T20:40:43.843Z,1.85
2023-02-06T20:43:11.544Z,1.86
2023-02-06T20:45:49.547Z,1.83
2023-02-06T20:48:26.229Z,1.78
2023-02-06T20:50:58.669Z,1.91
2023-02-06T20:53:26.974Z,1.89
2023-02-06T20:56:00.766Z,1.95
2023-02-06T21:05:28.249Z,1.98
2023-02-06T21:08:32.512Z,1.93
2023-02-06T21:11:08.552Z,1.86
2023-02-06T21:13:50.542Z,1.86
2023-02-06T21:16:20.645Z,1.83
2023-02-06T21:19:09.939Z,1.83
2023-02-06T21:21:56.707Z,1.93
2023-02-06T21:24:39.067Z,1.98
2023-02-06T21:27:23.078Z,1.91
2023-02-06T21:30:17.354Z,1.75
2023-02-06T21:32:47.695Z,1.78
2023-02-06T21:36:08.280Z,1.91
2023-02-06T21:39:36.162Z,1.82
2023-02-06T21:42:34.443Z,1.81
2023-02-06T21:45:04.591Z,1.87
2023-02-06T21:51:43.804Z,1.86
2023-02-06T21:57:53.382Z,1.87
2023-02-06T22:00:40.967Z,1.85
2023-02-06T22:04:55.066Z,1.88
2023-02-06T22:07:20.089Z,1.78
2023-02-06T22:09:48.409Z,1.84
2023-02-06T22:12:16.137Z,1.89
2023-02-06T22:14:46.045Z,1.85
2023-02-06T22:17:13.692Z,1.79
2023-02-06T22:19:49.226Z,1.67
2023-02-06T22:22:20.194Z,1.73
2023-02-06T22:25:01.382Z,1.68
2023-02-06T22:27:38.142Z,1.69
2023-02-06T22:30:07.220Z,1.60
2023-02-06T22:32:40.377Z,1.54
2023-02-06T22:35:08.345Z,1.48
2023-02-06T22:37:35.872Z,1.40
2023-02-06T22:40:03.578Z,1.32
2023-02-06T22:42:31.140Z,1.33
2023-02-06T22:44:58.764Z,1.30
2023-02-06T22:47:26.256Z,1.24
2023-02-06T22:49:53.618Z,1.28
2023-02-06T22:52:39.255Z,1.15
2023-02-06T22:55:07.308Z,1.16
2023-02-06T22:57:37.251Z,1.28
2023-02-06T23:00:09.399Z,1.32
2023-02-06T23:02:38.400Z,1.43
2023-02-06T23:05:06.334Z,1.34
2023-02-06T23:07:33.827Z,1.32
2023-02-06T23:10:01.273Z,1.21
2023-02-06T23:12:28.740Z,1.26
2023-02-06T23:14:56.295Z,1.36
2023-02-06T23:17:23.804Z,1.19
2023-02-06T23:19:51.251Z,1.04
2023-02-06T23:22:18.689Z,0.90
2023-02-06T23:24:46.203Z,0.87
2023-02-06T23:27:13.813Z,0.85
2023-02-06T23:29:41.334Z,0.95
2023-02-06T23:32:08.719Z,0.81
2023-02-06T23:34:37.555Z,0.78
2023-02-06T23:37:06.827Z,0.73
2023-02-06T23:39:34.255Z,0.76
2023-02-06T23:42:01.752Z,0.65
2023-02-06T23:44:29.223Z,0.73
2023-02-06T23:46:59.439Z,0.75
2023-02-06T23:49:26.886Z,0.80
2023-02-06T23:51:54.460Z,0.73
2023-02-06T23:54:21.949Z,0.58
2023-02-06T23:56:49.536Z,0.62
2023-02-06T23:59:17.090Z,0.64
